sensor_id;sensor_type;location;lat;lon;timestamp;temperature;humidity
13223;DHT22;6676;45.192;5.722;2023-07-31T00:01:22;20.20;99.90
13223;DHT22;6676;45.192;5.722;2023-07-31T00:04:13;20.30;99.90
13223;DHT22;6676;45.192;5.722;2023-07-31T00:07:05;20.30;99.90
13223;DHT22;6676;45.192;5.722;2023-07-31T00:09:57;20.20;99.90
13223;DHT22;6676;45.192;5.722;2023-07-31T00:12:48;20.10;99.90
13223;DHT22;6676;45.192;5.722;2023-07-31T00:15:39;20.10;99.90
13223;DHT22;6676;45.192;5.722;2023-07-31T00:18:31;20.10;99.90
13223;DHT22;6676;45.192;5.722;2023-07-31T00:24:00;20.10;99.90
13223;DHT22;6676;45.192;5.722;2023-07-31T00:26:51;20.10;99.90
13223;DHT22;6676;45.192;5.722;2023-07-31T00:29:42;20.00;99.90
13223;DHT22;6676;45.192;5.722;2023-07-31T00:32:33;19.90;99.90
13223;DHT22;6676;45.192;5.722;2023-07-31T00:35:27;19.90;99.90
13223;DHT22;6676;45.192;5.722;2023-07-31T00:38:18;20.00;99.90
13223;DHT22;6676;45.192;5.722;2023-07-31T00:43:48;19.90;99.90
13223;DHT22;6676;45.192;5.722;2023-07-31T00:49:18;19.70;99.90
13223;DHT22;6676;45.192;5.722;2023-07-31T00:52:11;19.70;99.90
13223;DHT22;6676;45.192;5.722;2023-07-31T00:55:05;19.50;99.90
13223;DHT22;6676;45.192;5.722;2023-07-31T00:57:58;19.50;99.90
13223;DHT22;6676;45.192;5.722;2023-07-31T01:00:50;19.40;99.90
13223;DHT22;6676;45.192;5.722;2023-07-31T01:03:43;19.40;99.90
13223;DHT22;6676;45.192;5.722;2023-07-31T01:06:42;19.40;99.90
13223;DHT22;6676;45.192;5.722;2023-07-31T01:09:34;19.50;99.90
13223;DHT22;6676;45.192;5.722;2023-07-31T01:15:13;19.40;99.90
13223;DHT22;6676;45.192;5.722;2023-07-31T01:18:06;19.40;99.90
13223;DHT22;6676;45.192;5.722;2023-07-31T01:29:45;19.40;99.90
13223;DHT22;6676;45.192;5.722;2023-07-31T01:32:38;19.40;99.90
13223;DHT22;6676;45.192;5.722;2023-07-31T01:38:09;19.30;99.90
13223;DHT22;6676;45.192;5.722;2023-07-31T01:43:38;19.20;99.90
13223;DHT22;6676;45.192;5.722;2023-07-31T01:46:29;19.20;99.90
13223;DHT22;6676;45.192;5.722;2023-07-31T01:49:21;19.10;99.90
13223;DHT22;6676;45.192;5.722;2023-07-31T01:54:52;18.80;99.90
13223;DHT22;6676;45.192;5.722;2023-07-31T02:00:21;18.70;99.90
13223;DHT22;6676;45.192;5.722;2023-07-31T02:03:14;18.60;99.90
13223;DHT22;6676;45.192;5.722;2023-07-31T02:06:06;18.70;99.90
13223;DHT22;6676;45.192;5.722;2023-07-31T02:08:57;18.70;99.90
13223;DHT22;6676;45.192;5.722;2023-07-31T02:11:49;18.60;99.90
13223;DHT22;6676;45.192;5.722;2023-07-31T02:14:40;18.60;99.90
13223;DHT22;6676;45.192;5.722;2023-07-31T02:17:32;18.70;99.90
13223;DHT22;6676;45.192;5.722;2023-07-31T02:23:01;18.70;99.90
13223;DHT22;6676;45.192;5.722;2023-07-31T02:28:32;18.70;99.90
13223;DHT22;6676;45.192;5.722;2023-07-31T02:31:23;18.60;99.90
13223;DHT22;6676;45.192;5.722;2023-07-31T02:34:14;18.60;99.90
13223;DHT22;6676;45.192;5.722;2023-07-31T02:37:06;18.60;99.90
13223;DHT22;6676;45.192;5.722;2023-07-31T02:39:57;18.60;99.90
13223;DHT22;6676;45.192;5.722;2023-07-31T02:42:49;18.40;99.90
13223;DHT22;6676;45.192;5.722;2023-07-31T02:45:40;18.40;99.90
13223;DHT22;6676;45.192;5.722;2023-07-31T02:48:32;18.40;99.90
13223;DHT22;6676;45.192;5.722;2023-07-31T02:51:23;18.30;99.90
13223;DHT22;6676;45.192;5.722;2023-07-31T02:54:15;18.30;99.90
13223;DHT22;6676;45.192;5.722;2023-07-31T02:57:06;18.20;99.90
13223;DHT22;6676;45.192;5.722;2023-07-31T02:59:57;18.20;99.90
13223;DHT22;6676;45.192;5.722;2023-07-31T03:05:27;18.10;99.90
13223;DHT22;6676;45.192;5.722;2023-07-31T03:08:18;18.10;99.90
13223;DHT22;6676;45.192;5.722;2023-07-31T03:13:50;17.90;99.90
13223;DHT22;6676;45.192;5.722;2023-07-31T03:16:42;18.00;99.90
13223;DHT22;6676;45.192;5.722;2023-07-31T03:19:33;17.90;99.90
13223;DHT22;6676;45.192;5.722;2023-07-31T03:22:24;17.80;99.90
13223;DHT22;6676;45.192;5.722;2023-07-31T03:25:16;17.70;99.90
13223;DHT22;6676;45.192;5.722;2023-07-31T03:28:07;17.70;99.90
13223;DHT22;6676;45.192;5.722;2023-07-31T03:30:58;17.70;99.90
13223;DHT22;6676;45.192;5.722;2023-07-31T03:33:51;17.70;99.90
13223;DHT22;6676;45.192;5.722;2023-07-31T03:36:42;17.80;99.90
13223;DHT22;6676;45.192;5.722;2023-07-31T03:39:34;17.70;99.90
13223;DHT22;6676;45.192;5.722;2023-07-31T03:42:25;17.60;99.90
13223;DHT22;6676;45.192;5.722;2023-07-31T03:47:56;17.60;99.90
13223;DHT22;6676;45.192;5.722;2023-07-31T03:50:47;17.70;99.90
13223;DHT22;6676;45.192;5.722;2023-07-31T03:53:38;17.80;99.90
13223;DHT22;6676;45.192;5.722;2023-07-31T03:56:29;17.80;99.90
13223;DHT22;6676;45.192;5.722;2023-07-31T04:02:03;17.80;99.90
13223;DHT22;6676;45.192;5.722;2023-07-31T04:04:54;17.90;99.90
13223;DHT22;6676;45.192;5.722;2023-07-31T04:07:45;17.80;99.90
13223;DHT22;6676;45.192;5.722;2023-07-31T04:13:16;17.80;99.90
13223;DHT22;6676;45.192;5.722;2023-07-31T04:18:46;17.90;99.90
13223;DHT22;6676;45.192;5.722;2023-07-31T04:21:37;17.90;99.90
13223;DHT22;6676;45.192;5.722;2023-07-31T04:24:28;17.90;99.90
13223;DHT22;6676;45.192;5.722;2023-07-31T04:30:01;17.90;99.90
13223;DHT22;6676;45.192;5.722;2023-07-31T04:32:53;17.90;99.90
13223;DHT22;6676;45.192;5.722;2023-07-31T04:35:49;17.90;99.90
13223;DHT22;6676;45.192;5.722;2023-07-31T04:38:41;17.90;99.90
13223;DHT22;6676;45.192;5.722;2023-07-31T04:41:32;17.90;99.90
13223;DHT22;6676;45.192;5.722;2023-07-31T04:44:24;18.00;99.90
13223;DHT22;6676;45.192;5.722;2023-07-31T04:47:15;18.10;99.90
13223;DHT22;6676;45.192;5.722;2023-07-31T04:50:08;18.10;99.90
13223;DHT22;6676;45.192;5.722;2023-07-31T04:52:59;18.00;99.90
13223;DHT22;6676;45.192;5.722;2023-07-31T04:59:10;17.80;99.90
13223;DHT22;6676;45.192;5.722;2023-07-31T05:11:59;17.90;99.90
13223;DHT22;6676;45.192;5.722;2023-07-31T05:14:53;18.00;99.90
13223;DHT22;6676;45.192;5.722;2023-07-31T05:17:45;18.10;99.90
13223;DHT22;6676;45.192;5.722;2023-07-31T05:20:36;18.10;99.90
13223;DHT22;6676;45.192;5.722;2023-07-31T05:23:27;18.20;99.90
13223;DHT22;6676;45.192;5.722;2023-07-31T05:26:19;18.30;99.90
13223;DHT22;6676;45.192;5.722;2023-07-31T05:29:10;18.30;99.90
13223;DHT22;6676;45.192;5.722;2023-07-31T05:32:01;18.40;99.90
13223;DHT22;6676;45.192;5.722;2023-07-31T05:34:53;18.30;99.90
13223;DHT22;6676;45.192;5.722;2023-07-31T05:40:28;18.40;99.90
13223;DHT22;6676;45.192;5.722;2023-07-31T05:43:19;18.40;99.90
13223;DHT22;6676;45.192;5.722;2023-07-31T05:46:11;18.40;99.90
13223;DHT22;6676;45.192;5.722;2023-07-31T05:49:02;18.50;99.90
13223;DHT22;6676;45.192;5.722;2023-07-31T05:51:54;18.50;99.90
13223;DHT22;6676;45.192;5.722;2023-07-31T05:54:45;18.50;99.90
13223;DHT22;6676;45.192;5.722;2023-07-31T06:02:55;18.50;99.90
13223;DHT22;6676;45.192;5.722;2023-07-31T06:08:28;18.60;99.90
13223;DHT22;6676;45.192;5.722;2023-07-31T06:13:57;18.70;99.90
13223;DHT22;6676;45.192;5.722;2023-07-31T06:16:49;18.80;99.90
13223;DHT22;6676;45.192;5.722;2023-07-31T06:19:40;18.80;99.90
13223;DHT22;6676;45.192;5.722;2023-07-31T06:22:32;18.80;99.90
13223;DHT22;6676;45.192;5.722;2023-07-31T06:28:06;18.70;99.90
13223;DHT22;6676;45.192;5.722;2023-07-31T06:30:57;18.80;99.90
13223;DHT22;6676;45.192;5.722;2023-07-31T06:33:48;18.70;99.90
13223;DHT22;6676;45.192;5.722;2023-07-31T06:36:39;18.80;99.90
13223;DHT22;6676;45.192;5.722;2023-07-31T06:39:31;18.90;99.90
13223;DHT22;6676;45.192;5.722;2023-07-31T06:42:22;18.90;99.90
13223;DHT22;6676;45.192;5.722;2023-07-31T06:45:13;18.90;99.90
13223;DHT22;6676;45.192;5.722;2023-07-31T06:48:04;19.00;99.90
13223;DHT22;6676;45.192;5.722;2023-07-31T06:50:56;19.00;99.90
13223;DHT22;6676;45.192;5.722;2023-07-31T06:53:47;19.10;99.90
13223;DHT22;6676;45.192;5.722;2023-07-31T06:56:39;19.10;99.90
13223;DHT22;6676;45.192;5.722;2023-07-31T06:59:30;19.10;99.90
13223;DHT22;6676;45.192;5.722;2023-07-31T07:02:21;19.20;99.90
13223;DHT22;6676;45.192;5.722;2023-07-31T07:07:51;19.30;99.90
13223;DHT22;6676;45.192;5.722;2023-07-31T07:10:46;19.40;99.90
13223;DHT22;6676;45.192;5.722;2023-07-31T07:14:08;19.50;99.90
13223;DHT22;6676;45.192;5.722;2023-07-31T07:17:03;19.60;99.90
13223;DHT22;6676;45.192;5.722;2023-07-31T07:19:55;19.70;99.90
13223;DHT22;6676;45.192;5.722;2023-07-31T07:22:47;19.80;99.90
13223;DHT22;6676;45.192;5.722;2023-07-31T07:25:39;19.80;99.90
13223;DHT22;6676;45.192;5.722;2023-07-31T07:28:30;19.80;99.90
13223;DHT22;6676;45.192;5.722;2023-07-31T07:31:21;19.90;99.90
13223;DHT22;6676;45.192;5.722;2023-07-31T07:34:13;20.00;99.90
13223;DHT22;6676;45.192;5.722;2023-07-31T07:37:06;20.10;99.90
13223;DHT22;6676;45.192;5.722;2023-07-31T07:39:58;20.20;99.90
13223;DHT22;6676;45.192;5.722;2023-07-31T07:42:50;20.30;99.90
13223;DHT22;6676;45.192;5.722;2023-07-31T07:45:42;20.20;99.90
13223;DHT22;6676;45.192;5.722;2023-07-31T07:48:33;20.20;99.90
13223;DHT22;6676;45.192;5.722;2023-07-31T07:51:24;20.20;99.90
13223;DHT22;6676;45.192;5.722;2023-07-31T07:54:16;20.30;99.90
13223;DHT22;6676;45.192;5.722;2023-07-31T07:57:07;20.30;99.90
13223;DHT22;6676;45.192;5.722;2023-07-31T07:59:58;20.50;99.90
13223;DHT22;6676;45.192;5.722;2023-07-31T08:02:52;20.50;99.90
13223;DHT22;6676;45.192;5.722;2023-07-31T08:05:44;20.60;99.90
13223;DHT22;6676;45.192;5.722;2023-07-31T08:08:35;20.70;99.90
13223;DHT22;6676;45.192;5.722;2023-07-31T08:11:27;20.80;99.90
13223;DHT22;6676;45.192;5.722;2023-07-31T08:14:18;20.80;99.90
13223;DHT22;6676;45.192;5.722;2023-07-31T08:17:10;20.90;99.90
13223;DHT22;6676;45.192;5.722;2023-07-31T08:20:01;21.00;99.90
13223;DHT22;6676;45.192;5.722;2023-07-31T08:22:52;21.00;99.90
13223;DHT22;6676;45.192;5.722;2023-07-31T08:25:44;21.00;99.90
13223;DHT22;6676;45.192;5.722;2023-07-31T08:28:35;21.00;99.90
13223;DHT22;6676;45.192;5.722;2023-07-31T08:31:27;21.10;99.90
13223;DHT22;6676;45.192;5.722;2023-07-31T08:34:19;21.10;99.90
13223;DHT22;6676;45.192;5.722;2023-07-31T08:37:10;21.00;99.90
13223;DHT22;6676;45.192;5.722;2023-07-31T08:40:02;21.00;99.90
13223;DHT22;6676;45.192;5.722;2023-07-31T08:42:55;21.00;99.90
13223;DHT22;6676;45.192;5.722;2023-07-31T08:45:49;21.10;99.90
13223;DHT22;6676;45.192;5.722;2023-07-31T08:48:43;21.20;99.90
13223;DHT22;6676;45.192;5.722;2023-07-31T08:51:35;21.20;99.90
13223;DHT22;6676;45.192;5.722;2023-07-31T08:54:27;21.30;99.90
13223;DHT22;6676;45.192;5.722;2023-07-31T08:59:59;21.40;99.90
13223;DHT22;6676;45.192;5.722;2023-07-31T09:02:56;21.40;99.90
13223;DHT22;6676;45.192;5.722;2023-07-31T09:08:32;21.60;99.90
13223;DHT22;6676;45.192;5.722;2023-07-31T09:11:24;21.60;99.90
13223;DHT22;6676;45.192;5.722;2023-07-31T09:14:19;21.70;99.90
13223;DHT22;6676;45.192;5.722;2023-07-31T09:17:14;21.70;99.90
13223;DHT22;6676;45.192;5.722;2023-07-31T09:22:54;21.80;99.90
13223;DHT22;6676;45.192;5.722;2023-07-31T09:25:45;21.90;99.90
13223;DHT22;6676;45.192;5.722;2023-07-31T09:28:37;21.90;99.90
13223;DHT22;6676;45.192;5.722;2023-07-31T09:34:38;22.10;99.90
13223;DHT22;6676;45.192;5.722;2023-07-31T09:37:31;22.20;99.90
13223;DHT22;6676;45.192;5.722;2023-07-31T09:40:30;22.20;99.90
13223;DHT22;6676;45.192;5.722;2023-07-31T09:43:22;22.30;99.90
13223;DHT22;6676;45.192;5.722;2023-07-31T09:46:15;22.40;99.90
13223;DHT22;6676;45.192;5.722;2023-07-31T09:49:10;22.40;99.90
13223;DHT22;6676;45.192;5.722;2023-07-31T09:52:01;22.60;99.90
13223;DHT22;6676;45.192;5.722;2023-07-31T09:54:54;22.60;99.90
13223;DHT22;6676;45.192;5.722;2023-07-31T09:57:48;22.60;99.90
13223;DHT22;6676;45.192;5.722;2023-07-31T10:00:40;22.60;99.90
13223;DHT22;6676;45.192;5.722;2023-07-31T10:03:32;22.80;99.90
13223;DHT22;6676;45.192;5.722;2023-07-31T10:09:04;23.10;99.90
13223;DHT22;6676;45.192;5.722;2023-07-31T10:11:59;23.00;99.90
13223;DHT22;6676;45.192;5.722;2023-07-31T10:14:52;23.10;99.90
13223;DHT22;6676;45.192;5.722;2023-07-31T10:17:44;23.10;99.90
13223;DHT22;6676;45.192;5.722;2023-07-31T10:23:19;23.30;99.90
13223;DHT22;6676;45.192;5.722;2023-07-31T10:26:11;23.30;99.90
13223;DHT22;6676;45.192;5.722;2023-07-31T10:29:06;23.30;99.90
13223;DHT22;6676;45.192;5.722;2023-07-31T10:31:58;23.20;99.90
13223;DHT22;6676;45.192;5.722;2023-07-31T10:34:50;23.20;99.90
13223;DHT22;6676;45.192;5.722;2023-07-31T10:37:43;23.30;99.90
13223;DHT22;6676;45.192;5.722;2023-07-31T10:40:34;23.50;99.90
13223;DHT22;6676;45.192;5.722;2023-07-31T10:43:26;23.60;99.90
13223;DHT22;6676;45.192;5.722;2023-07-31T10:49:02;23.70;99.90
13223;DHT22;6676;45.192;5.722;2023-07-31T10:51:55;23.70;99.90
13223;DHT22;6676;45.192;5.722;2023-07-31T10:54:47;23.70;99.90
13223;DHT22;6676;45.192;5.722;2023-07-31T10:57:38;23.80;99.90
13223;DHT22;6676;45.192;5.722;2023-07-31T11:00:30;23.90;99.90
13223;DHT22;6676;45.192;5.722;2023-07-31T11:06:08;24.10;99.90
13223;DHT22;6676;45.192;5.722;2023-07-31T11:09:00;24.20;99.90
13223;DHT22;6676;45.192;5.722;2023-07-31T11:11:51;24.20;99.90
13223;DHT22;6676;45.192;5.722;2023-07-31T11:14:43;24.30;99.90
13223;DHT22;6676;45.192;5.722;2023-07-31T11:17:34;24.30;99.90
13223;DHT22;6676;45.192;5.722;2023-07-31T11:20:26;24.30;99.90
13223;DHT22;6676;45.192;5.722;2023-07-31T11:23:18;24.30;99.90
13223;DHT22;6676;45.192;5.722;2023-07-31T11:26:10;24.30;99.90
13223;DHT22;6676;45.192;5.722;2023-07-31T11:29:01;24.40;99.90
13223;DHT22;6676;45.192;5.722;2023-07-31T11:31:53;24.50;99.90
13223;DHT22;6676;45.192;5.722;2023-07-31T11:34:53;24.70;99.90
13223;DHT22;6676;45.192;5.722;2023-07-31T11:37:44;24.70;99.90
13223;DHT22;6676;45.192;5.722;2023-07-31T11:40:42;24.70;99.90
13223;DHT22;6676;45.192;5.722;2023-07-31T11:43:33;24.70;99.90
13223;DHT22;6676;45.192;5.722;2023-07-31T11:46:26;24.80;99.90
13223;DHT22;6676;45.192;5.722;2023-07-31T11:49:18;24.90;99.90
13223;DHT22;6676;45.192;5.722;2023-07-31T11:52:09;25.10;99.90
13223;DHT22;6676;45.192;5.722;2023-07-31T11:55:01;25.20;99.90
13223;DHT22;6676;45.192;5.722;2023-07-31T11:57:54;25.30;99.90
13223;DHT22;6676;45.192;5.722;2023-07-31T12:00:47;25.30;99.90
13223;DHT22;6676;45.192;5.722;2023-07-31T12:03:39;25.40;99.90
13223;DHT22;6676;45.192;5.722;2023-07-31T12:06:35;25.40;99.90
13223;DHT22;6676;45.192;5.722;2023-07-31T12:09:28;25.50;99.90
13223;DHT22;6676;45.192;5.722;2023-07-31T12:12:22;25.60;99.90
13223;DHT22;6676;45.192;5.722;2023-07-31T12:15:17;25.70;99.90
13223;DHT22;6676;45.192;5.722;2023-07-31T12:18:10;25.80;99.90
13223;DHT22;6676;45.192;5.722;2023-07-31T12:21:04;25.70;99.90
13223;DHT22;6676;45.192;5.722;2023-07-31T12:23:55;25.80;99.90
13223;DHT22;6676;45.192;5.722;2023-07-31T12:26:47;26.00;99.90
13223;DHT22;6676;45.192;5.722;2023-07-31T12:29:41;26.00;99.90
13223;DHT22;6676;45.192;5.722;2023-07-31T12:32:33;26.00;99.90
13223;DHT22;6676;45.192;5.722;2023-07-31T12:35:25;26.00;99.90
13223;DHT22;6676;45.192;5.722;2023-07-31T12:38:19;26.00;99.90
13223;DHT22;6676;45.192;5.722;2023-07-31T12:41:11;26.30;99.90
13223;DHT22;6676;45.192;5.722;2023-07-31T12:44:02;26.40;99.90
13223;DHT22;6676;45.192;5.722;2023-07-31T12:46:54;26.30;99.90
13223;DHT22;6676;45.192;5.722;2023-07-31T12:49:45;26.40;99.90
13223;DHT22;6676;45.192;5.722;2023-07-31T12:55:26;26.70;99.90
13223;DHT22;6676;45.192;5.722;2023-07-31T12:58:17;26.70;99.90
13223;DHT22;6676;45.192;5.722;2023-07-31T13:01:09;26.70;99.90
13223;DHT22;6676;45.192;5.722;2023-07-31T13:04:00;26.80;99.90
13223;DHT22;6676;45.192;5.722;2023-07-31T13:06:51;26.90;99.90
13223;DHT22;6676;45.192;5.722;2023-07-31T13:09:43;26.90;99.90
13223;DHT22;6676;45.192;5.722;2023-07-31T13:12:34;26.80;99.90
13223;DHT22;6676;45.192;5.722;2023-07-31T13:15:25;26.90;99.90
13223;DHT22;6676;45.192;5.722;2023-07-31T13:18:17;27.00;99.90
13223;DHT22;6676;45.192;5.722;2023-07-31T13:21:09;27.10;99.90
13223;DHT22;6676;45.192;5.722;2023-07-31T13:24:00;27.10;99.90
13223;DHT22;6676;45.192;5.722;2023-07-31T13:26:51;27.20;99.60
13223;DHT22;6676;45.192;5.722;2023-07-31T13:29:43;27.40;99.30
13223;DHT22;6676;45.192;5.722;2023-07-31T13:32:34;27.40;99.10
13223;DHT22;6676;45.192;5.722;2023-07-31T13:35:28;27.40;99.10
13223;DHT22;6676;45.192;5.722;2023-07-31T13:38:21;27.40;98.80
13223;DHT22;6676;45.192;5.722;2023-07-31T13:41:12;27.50;98.80
13223;DHT22;6676;45.192;5.722;2023-07-31T13:44:04;27.40;98.80
13223;DHT22;6676;45.192;5.722;2023-07-31T13:49:35;27.50;98.90
13223;DHT22;6676;45.192;5.722;2023-07-31T13:52:28;27.70;98.30
13223;DHT22;6676;45.192;5.722;2023-07-31T13:55:19;28.00;98.00
13223;DHT22;6676;45.192;5.722;2023-07-31T13:58:11;28.00;97.50
13223;DHT22;6676;45.192;5.722;2023-07-31T14:01:03;28.20;97.30
13223;DHT22;6676;45.192;5.722;2023-07-31T14:03:55;28.50;95.50
13223;DHT22;6676;45.192;5.722;2023-07-31T14:06:47;28.60;95.50
13223;DHT22;6676;45.192;5.722;2023-07-31T14:09:40;29.00;95.10
13223;DHT22;6676;45.192;5.722;2023-07-31T14:12:31;29.10;94.30
13223;DHT22;6676;45.192;5.722;2023-07-31T14:15:24;29.30;93.80
13223;DHT22;6676;45.192;5.722;2023-07-31T14:18:15;29.60;93.40
13223;DHT22;6676;45.192;5.722;2023-07-31T14:21:13;29.90;92.20
13223;DHT22;6676;45.192;5.722;2023-07-31T14:24:06;29.90;91.60
13223;DHT22;6676;45.192;5.722;2023-07-31T14:26:57;30.20;90.80
13223;DHT22;6676;45.192;5.722;2023-07-31T14:29:53;30.40;89.60
13223;DHT22;6676;45.192;5.722;2023-07-31T14:32:44;30.50;88.70
13223;DHT22;6676;45.192;5.722;2023-07-31T14:38:37;30.70;85.20
13223;DHT22;6676;45.192;5.722;2023-07-31T14:41:28;30.70;85.10
13223;DHT22;6676;45.192;5.722;2023-07-31T14:44:20;30.80;83.70
13223;DHT22;6676;45.192;5.722;2023-07-31T14:47:11;30.90;82.60
13223;DHT22;6676;45.192;5.722;2023-07-31T14:50:03;30.90;81.30
13223;DHT22;6676;45.192;5.722;2023-07-31T14:52:55;30.90;81.40
13223;DHT22;6676;45.192;5.722;2023-07-31T14:55:46;31.10;79.70
13223;DHT22;6676;45.192;5.722;2023-07-31T14:58:37;31.50;79.00
13223;DHT22;6676;45.192;5.722;2023-07-31T15:01:28;31.50;76.70
13223;DHT22;6676;45.192;5.722;2023-07-31T15:04:19;31.40;75.80
13223;DHT22;6676;45.192;5.722;2023-07-31T15:07:11;31.60;75.20
13223;DHT22;6676;45.192;5.722;2023-07-31T15:10:05;31.90;73.20
13223;DHT22;6676;45.192;5.722;2023-07-31T15:12:56;31.80;72.50
13223;DHT22;6676;45.192;5.722;2023-07-31T15:15:47;31.80;71.20
13223;DHT22;6676;45.192;5.722;2023-07-31T15:18:41;31.60;70.50
13223;DHT22;6676;45.192;5.722;2023-07-31T15:21:33;31.60;70.50
13223;DHT22;6676;45.192;5.722;2023-07-31T15:24:25;31.80;69.70
13223;DHT22;6676;45.192;5.722;2023-07-31T15:27:17;32.30;68.80
13223;DHT22;6676;45.192;5.722;2023-07-31T15:30:10;32.30;67.50
13223;DHT22;6676;45.192;5.722;2023-07-31T15:33:01;32.30;67.30
13223;DHT22;6676;45.192;5.722;2023-07-31T15:35:53;32.60;66.90
13223;DHT22;6676;45.192;5.722;2023-07-31T15:38:45;32.70;66.60
13223;DHT22;6676;45.192;5.722;2023-07-31T15:41:38;33.70;66.50
13223;DHT22;6676;45.192;5.722;2023-07-31T15:44:30;34.10;65.50
13223;DHT22;6676;45.192;5.722;2023-07-31T15:47:21;33.60;64.80
13223;DHT22;6676;45.192;5.722;2023-07-31T15:50:14;33.90;64.80
13223;DHT22;6676;45.192;5.722;2023-07-31T15:53:05;33.90;63.90
13223;DHT22;6676;45.192;5.722;2023-07-31T15:55:57;33.70;63.00
13223;DHT22;6676;45.192;5.722;2023-07-31T15:58:48;33.30;62.70
13223;DHT22;6676;45.192;5.722;2023-07-31T16:01:40;33.40;62.50
13223;DHT22;6676;45.192;5.722;2023-07-31T16:04:33;33.40;62.40
13223;DHT22;6676;45.192;5.722;2023-07-31T16:07:24;33.70;61.80
13223;DHT22;6676;45.192;5.722;2023-07-31T16:10:16;33.50;61.20
13223;DHT22;6676;45.192;5.722;2023-07-31T16:13:07;33.60;62.00
13223;DHT22;6676;45.192;5.722;2023-07-31T16:15:59;33.60;61.70
13223;DHT22;6676;45.192;5.722;2023-07-31T16:18:50;33.50;61.70
13223;DHT22;6676;45.192;5.722;2023-07-31T16:21:41;33.80;61.60
13223;DHT22;6676;45.192;5.722;2023-07-31T16:24:32;33.40;61.00
13223;DHT22;6676;45.192;5.722;2023-07-31T16:27:26;33.60;60.50
13223;DHT22;6676;45.192;5.722;2023-07-31T16:30:17;33.30;60.40
13223;DHT22;6676;45.192;5.722;2023-07-31T16:33:08;34.10;59.60
13223;DHT22;6676;45.192;5.722;2023-07-31T16:36:00;34.10;59.80
13223;DHT22;6676;45.192;5.722;2023-07-31T16:38:51;33.80;60.00
13223;DHT22;6676;45.192;5.722;2023-07-31T16:41:43;33.80;60.60
13223;DHT22;6676;45.192;5.722;2023-07-31T16:44:34;34.30;60.00
13223;DHT22;6676;45.192;5.722;2023-07-31T16:47:26;33.90;60.30
13223;DHT22;6676;45.192;5.722;2023-07-31T16:50:17;33.40;61.20
13223;DHT22;6676;45.192;5.722;2023-07-31T16:53:10;34.00;60.50
13223;DHT22;6676;45.192;5.722;2023-07-31T16:56:02;33.90;60.60
13223;DHT22;6676;45.192;5.722;2023-07-31T16:58:55;33.90;60.70
13223;DHT22;6676;45.192;5.722;2023-07-31T17:01:46;33.70;59.50
13223;DHT22;6676;45.192;5.722;2023-07-31T17:04:38;33.80;60.00
13223;DHT22;6676;45.192;5.722;2023-07-31T17:07:31;33.70;60.50
13223;DHT22;6676;45.192;5.722;2023-07-31T17:10:23;33.90;59.90
13223;DHT22;6676;45.192;5.722;2023-07-31T17:13:15;33.70;59.30
13223;DHT22;6676;45.192;5.722;2023-07-31T17:16:06;33.20;59.50
13223;DHT22;6676;45.192;5.722;2023-07-31T17:18:58;33.40;59.60
13223;DHT22;6676;45.192;5.722;2023-07-31T17:21:51;32.80;60.10
13223;DHT22;6676;45.192;5.722;2023-07-31T17:27:26;32.30;61.70
13223;DHT22;6676;45.192;5.722;2023-07-31T17:30:17;32.00;61.60
13223;DHT22;6676;45.192;5.722;2023-07-31T17:33:08;31.80;62.30
13223;DHT22;6676;45.192;5.722;2023-07-31T17:36:00;31.40;62.60
13223;DHT22;6676;45.192;5.722;2023-07-31T17:38:51;31.00;62.50
13223;DHT22;6676;45.192;5.722;2023-07-31T17:41:42;30.80;63.40
13223;DHT22;6676;45.192;5.722;2023-07-31T17:44:34;30.90;63.90
13223;DHT22;6676;45.192;5.722;2023-07-31T17:47:26;31.10;63.00
13223;DHT22;6676;45.192;5.722;2023-07-31T17:50:18;31.20;63.30
13223;DHT22;6676;45.192;5.722;2023-07-31T17:53:09;31.40;63.50
13223;DHT22;6676;45.192;5.722;2023-07-31T17:56:05;31.50;63.20
13223;DHT22;6676;45.192;5.722;2023-07-31T17:58:57;31.60;63.60
13223;DHT22;6676;45.192;5.722;2023-07-31T18:01:48;31.80;63.10
13223;DHT22;6676;45.192;5.722;2023-07-31T18:04:40;31.80;63.00
13223;DHT22;6676;45.192;5.722;2023-07-31T18:07:31;31.90;63.60
13223;DHT22;6676;45.192;5.722;2023-07-31T18:10:23;31.30;64.00
13223;DHT22;6676;45.192;5.722;2023-07-31T18:13:16;30.70;64.90
13223;DHT22;6676;45.192;5.722;2023-07-31T18:16:07;30.00;66.00
13223;DHT22;6676;45.192;5.722;2023-07-31T18:18:59;29.50;67.30
13223;DHT22;6676;45.192;5.722;2023-07-31T18:21:50;29.10;68.50
13223;DHT22;6676;45.192;5.722;2023-07-31T18:24:42;28.70;70.20
13223;DHT22;6676;45.192;5.722;2023-07-31T18:27:33;28.50;70.80
13223;DHT22;6676;45.192;5.722;2023-07-31T18:30:24;28.30;71.70
13223;DHT22;6676;45.192;5.722;2023-07-31T18:33:16;28.10;71.90
13223;DHT22;6676;45.192;5.722;2023-07-31T18:36:08;27.90;72.10
13223;DHT22;6676;45.192;5.722;2023-07-31T18:39:00;27.70;72.80
13223;DHT22;6676;45.192;5.722;2023-07-31T18:41:51;27.50;74.00
13223;DHT22;6676;45.192;5.722;2023-07-31T18:47:30;27.20;75.90
13223;DHT22;6676;45.192;5.722;2023-07-31T18:50:23;27.10;76.60
13223;DHT22;6676;45.192;5.722;2023-07-31T18:53:15;26.90;77.60
13223;DHT22;6676;45.192;5.722;2023-07-31T19:03:34;26.30;81.70
13223;DHT22;6676;45.192;5.722;2023-07-31T19:06:27;26.10;83.40
13223;DHT22;6676;45.192;5.722;2023-07-31T19:09:27;25.90;83.80
13223;DHT22;6676;45.192;5.722;2023-07-31T19:12:19;25.80;86.60
13223;DHT22;6676;45.192;5.722;2023-07-31T19:15:13;25.80;86.70
13223;DHT22;6676;45.192;5.722;2023-07-31T19:20:50;25.70;89.20
13223;DHT22;6676;45.192;5.722;2023-07-31T19:23:41;25.70;89.10
13223;DHT22;6676;45.192;5.722;2023-07-31T19:26:32;25.80;89.70
13223;DHT22;6676;45.192;5.722;2023-07-31T19:29:23;25.80;89.40
13223;DHT22;6676;45.192;5.722;2023-07-31T19:32:14;25.70;89.70
13223;DHT22;6676;45.192;5.722;2023-07-31T19:35:07;25.70;90.10
13223;DHT22;6676;45.192;5.722;2023-07-31T19:37:58;25.60;90.30
13223;DHT22;6676;45.192;5.722;2023-07-31T19:40:50;25.40;90.60
13223;DHT22;6676;45.192;5.722;2023-07-31T19:43:41;25.30;91.10
13223;DHT22;6676;45.192;5.722;2023-07-31T19:46:32;25.10;91.70
13223;DHT22;6676;45.192;5.722;2023-07-31T19:49:26;25.00;92.00
13223;DHT22;6676;45.192;5.722;2023-07-31T19:52:18;24.90;92.50
13223;DHT22;6676;45.192;5.722;2023-07-31T19:55:10;24.90;92.90
13223;DHT22;6676;45.192;5.722;2023-07-31T19:58:01;24.80;93.30
13223;DHT22;6676;45.192;5.722;2023-07-31T20:00:54;24.70;93.50
13223;DHT22;6676;45.192;5.722;2023-07-31T20:03:46;24.70;93.90
13223;DHT22;6676;45.192;5.722;2023-07-31T20:06:37;24.70;95.20
13223;DHT22;6676;45.192;5.722;2023-07-31T20:09:29;24.60;96.10
13223;DHT22;6676;45.192;5.722;2023-07-31T20:12:21;24.50;97.80
13223;DHT22;6676;45.192;5.722;2023-07-31T20:15:21;24.40;98.10
13223;DHT22;6676;45.192;5.722;2023-07-31T20:18:13;24.40;98.30
13223;DHT22;6676;45.192;5.722;2023-07-31T20:21:04;24.40;98.50
13223;DHT22;6676;45.192;5.722;2023-07-31T20:23:56;24.50;98.30
13223;DHT22;6676;45.192;5.722;2023-07-31T20:26:47;24.50;98.00
13223;DHT22;6676;45.192;5.722;2023-07-31T20:29:39;24.60;97.80
13223;DHT22;6676;45.192;5.722;2023-07-31T20:32:31;24.70;97.20
13223;DHT22;6676;45.192;5.722;2023-07-31T20:35:22;24.80;97.10